createdAt,value
2022-12-25T00:01:54.640Z,93.35
2022-12-25T00:04:22.023Z,93.33
2022-12-25T00:06:49.444Z,93.40
2022-12-25T00:09:17.284Z,93.31
2022-12-25T00:11:44.738Z,92.64
2022-12-25T00:14:12.396Z,91.90
2022-12-25T00:16:39.793Z,91.75
2022-12-25T00:19:07.294Z,91.80
2022-12-25T00:21:34.848Z,91.72
2022-12-25T00:24:03.514Z,91.72
2022-12-25T00:26:31.004Z,91.64
2022-12-25T00:28:59.028Z,91.65
2022-12-25T00:31:26.714Z,91.68
2022-12-25T00:33:54.626Z,91.55
2022-12-25T00:36:23.709Z,91.52
2022-12-25T00:38:51.271Z,91.54
2022-12-25T00:41:43.315Z,91.55
2022-12-25T00:44:13.831Z,91.54
2022-12-25T00:46:42.522Z,91.57
2022-12-25T00:49:11.839Z,91.60
2022-12-25T00:51:40.172Z,91.53
2022-12-25T00:54:07.725Z,91.52
2022-12-25T00:56:35.976Z,91.51
2022-12-25T00:59:06.385Z,91.54
2022-12-25T01:01:34.698Z,91.62
2022-12-25T01:04:05.683Z,91.66
2022-12-25T01:06:33.535Z,91.67
2022-12-25T01:09:20.829Z,91.74
2022-12-25T01:11:48.289Z,91.83
2022-12-25T01:14:15.900Z,91.91
2022-12-25T01:16:43.591Z,91.91
2022-12-25T01:19:11.711Z,91.90
2022-12-25T01:21:39.448Z,91.92
2022-12-25T01:24:07.360Z,91.99
2022-12-25T01:26:34.794Z,91.97
2022-12-25T01:29:02.689Z,91.96
2022-12-25T01:31:30.141Z,91.94
2022-12-25T01:33:58.001Z,91.85
2022-12-25T01:36:43.905Z,91.84
2022-12-25T01:39:27.426Z,91.80
2022-12-25T01:42:07.922Z,91.71
2022-12-25T01:47:34.168Z,91.36
2022-12-25T01:50:01.813Z,91.47
2022-12-25T01:52:31.102Z,92.04
2022-12-25T01:55:04.182Z,92.12
2022-12-25T01:57:36.278Z,91.94
2022-12-25T02:00:11.603Z,92.05
2022-12-25T02:02:41.363Z,92.19
2022-12-25T02:05:31.680Z,92.23
2022-12-25T02:08:11.176Z,92.57
2022-12-25T02:10:39.734Z,92.75
2022-12-25T02:13:08.140Z,93.09
2022-12-25T02:16:12.819Z,93.59
2022-12-25T02:19:00.956Z,94.03
2022-12-25T02:21:52.981Z,94.35
2022-12-25T02:24:35.509Z,94.38
2022-12-25T02:27:21.836Z,94.32
2022-12-25T02:30:10.552Z,94.28
2022-12-25T02:32:49.579Z,94.02
2022-12-25T02:35:35.759Z,93.86
2022-12-25T02:38:13.328Z,93.64
2022-12-25T02:40:51.310Z,93.34
2022-12-25T02:43:48.134Z,93.30
2022-12-25T02:46:40.411Z,93.23
2022-12-25T02:49:34.760Z,93.09
2022-12-25T02:52:30.347Z,93.15
2022-12-25T02:55:27.841Z,93.24
2022-12-25T02:58:17.917Z,93.22
2022-12-25T03:01:08.862Z,93.37
2022-12-25T03:04:00.688Z,93.44
2022-12-25T03:06:44.859Z,93.37
2022-12-25T03:09:48.079Z,93.35
2022-12-25T03:12:34.509Z,93.40
2022-12-25T03:15:21.691Z,93.28
2022-12-25T03:17:49.093Z,93.31
2022-12-25T03:20:35.677Z,93.42
2022-12-25T03:23:22.391Z,93.80
2022-12-25T03:26:08.402Z,93.85
2022-12-25T03:28:36.980Z,93.84
2022-12-25T03:31:20.831Z,93.62
2022-12-25T03:34:25.060Z,93.51
2022-12-25T03:37:29.844Z,93.72
2022-12-25T03:40:24.591Z,93.97
2022-12-25T03:43:46.668Z,94.14
2022-12-25T03:46:39.226Z,94.19
2022-12-25T03:49:43.881Z,94.13
2022-12-25T03:52:34.035Z,93.73
2022-12-25T03:55:27.520Z,93.26
2022-12-25T03:58:13.592Z,92.98
2022-12-25T04:00:59.563Z,92.91
2022-12-25T04:03:45.541Z,92.95
2022-12-25T04:06:31.378Z,92.79
2022-12-25T04:09:17.191Z,92.59
2022-12-25T04:12:03.803Z,92.64
2022-12-25T04:14:49.725Z,92.79
2022-12-25T04:17:35.712Z,92.78
2022-12-25T04:20:22.044Z,92.87
2022-12-25T04:23:08.261Z,92.91
2022-12-25T04:25:54.476Z,92.87
2022-12-25T04:28:40.658Z,92.84
2022-12-25T04:31:26.954Z,92.81
2022-12-25T04:34:13.397Z,92.90
2022-12-25T04:36:40.894Z,92.88
2022-12-25T04:39:10.684Z,92.77
2022-12-25T04:41:38.059Z,92.78
2022-12-25T04:44:05.579Z,92.84
2022-12-25T04:46:33.028Z,92.80
2022-12-25T04:49:00.526Z,92.69
2022-12-25T04:51:27.922Z,92.62
2022-12-25T04:53:56.571Z,92.65
2022-12-25T04:56:24.119Z,92.55
2022-12-25T04:58:51.509Z,92.52
2022-12-25T05:01:19.069Z,92.50
2022-12-25T05:03:46.603Z,92.57
2022-12-25T05:06:14.119Z,92.45
2022-12-25T05:08:41.628Z,92.51
2022-12-25T05:11:13.302Z,92.45
2022-12-25T05:13:41.408Z,92.44
2022-12-25T05:16:18.503Z,92.32
2022-12-25T05:18:49.220Z,92.30
2022-12-25T05:21:17.768Z,92.37
2022-12-25T05:23:51.324Z,92.32
2022-12-25T05:26:25.465Z,92.29
2022-12-25T05:28:54.096Z,92.34
2022-12-25T05:31:21.605Z,92.35
2022-12-25T05:33:52.728Z,92.32
2022-12-25T05:36:20.378Z,92.42
2022-12-25T05:38:48.242Z,92.35
2022-12-25T05:41:15.718Z,92.31
2022-12-25T05:43:43.307Z,92.32
2022-12-25T05:46:13.286Z,92.45
2022-12-25T05:48:40.759Z,92.41
2022-12-25T05:51:12.381Z,92.55
2022-12-25T05:53:43.489Z,92.59
2022-12-25T05:56:11.180Z,92.46
2022-12-25T05:58:40.284Z,92.32
2022-12-25T06:01:15.241Z,92.37
2022-12-25T06:03:42.875Z,92.44
2022-12-25T06:06:11.510Z,92.81
2022-12-25T06:08:38.754Z,93.03
2022-12-25T06:11:08.593Z,93.06
2022-12-25T06:13:37.022Z,92.79
2022-12-25T06:16:11.087Z,92.75
2022-12-25T06:18:43.583Z,92.53
2022-12-25T06:21:13.987Z,92.38
2022-12-25T06:23:42.530Z,92.43
2022-12-25T06:26:15.467Z,92.54
2022-12-25T06:28:43.553Z,92.45
2022-12-25T06:31:20.400Z,92.46
2022-12-25T06:33:48.735Z,92.46
2022-12-25T06:36:20.621Z,92.49
2022-12-25T06:38:48.853Z,92.53
2022-12-25T06:41:21.264Z,92.51
2022-12-25T06:44:00.844Z,92.93
2022-12-25T06:46:30.500Z,93.84
2022-12-25T06:48:59.753Z,92.02
2022-12-25T06:51:31.497Z,84.02
2022-12-25T06:54:03.806Z,79.22
2022-12-25T06:56:33.181Z,80.12
2022-12-25T06:59:04.980Z,82.22
2022-12-25T07:01:42.203Z,80.25
2022-12-25T07:04:40.633Z,75.52
2022-12-25T07:07:09.920Z,73.38
2022-12-25T07:09:42.470Z,66.67
2022-12-25T07:12:17.806Z,64.96
2022-12-25T07:14:48.857Z,59.74
2022-12-25T07:17:17.424Z,52.87
2022-12-25T07:19:47.020Z,55.08
2022-12-25T07:22:15.920Z,51.71
2022-12-25T07:24:44.786Z,50.50
2022-12-25T07:27:12.425Z,49.87
2022-12-25T07:29:40.052Z,47.32
2022-12-25T07:32:07.574Z,47.49
2022-12-25T07:34:35.012Z,50.73
2022-12-25T07:37:02.676Z,50.44
2022-12-25T07:39:30.360Z,50.82
2022-12-25T07:41:57.780Z,47.87
2022-12-25T07:44:28.183Z,49.51
2022-12-25T07:46:55.634Z,46.68
2022-12-25T07:49:23.149Z,46.40
2022-12-25T07:51:50.680Z,47.01
2022-12-25T07:54:18.349Z,45.88
2022-12-25T07:56:45.887Z,44.27
2022-12-25T07:59:13.443Z,44.42
2022-12-25T08:01:40.953Z,45.19
2022-12-25T08:04:11.669Z,43.71
2022-12-25T08:06:39.402Z,43.97
2022-12-25T08:09:12.099Z,43.70
2022-12-25T08:11:40.101Z,44.53
2022-12-25T08:14:09.191Z,43.35
2022-12-25T08:16:41.518Z,41.35
2022-12-25T08:19:10.197Z,41.41
2022-12-25T08:21:38.561Z,42.66
2022-12-25T08:24:06.588Z,43.82
2022-12-25T08:26:34.329Z,42.25
2022-12-25T08:29:02.309Z,43.36
2022-12-25T08:31:30.578Z,41.17
2022-12-25T08:33:59.098Z,41.97
2022-12-25T08:36:27.321Z,39.05
2022-12-25T08:39:02.117Z,38.01
2022-12-25T08:41:30.372Z,40.35
2022-12-25T08:43:58.311Z,41.44
2022-12-25T08:46:25.918Z,42.40
2022-12-25T08:48:53.312Z,43.35
2022-12-25T08:51:23.350Z,43.02
2022-12-25T08:53:53.643Z,38.28
2022-12-25T08:56:21.186Z,37.42
2022-12-25T08:58:48.590Z,36.04
2022-12-25T09:01:16.313Z,36.34
2022-12-25T09:03:44.006Z,37.96
2022-12-25T09:06:16.457Z,35.86
2022-12-25T09:08:49.220Z,34.80
2022-12-25T09:11:20.928Z,34.40
2022-12-25T09:13:49.213Z,32.38
2022-12-25T09:16:21.025Z,33.87
2022-12-25T09:18:49.043Z,34.22
2022-12-25T09:21:17.996Z,33.71
2022-12-25T09:23:45.655Z,33.97
2022-12-25T09:26:16.117Z,32.43
2022-12-25T09:28:50.613Z,32.82
2022-12-25T09:31:20.738Z,31.08
2022-12-25T09:33:49.314Z,31.29
2022-12-25T09:36:16.885Z,31.21
2022-12-25T09:38:44.362Z,32.78
2022-12-25T09:41:20.796Z,34.90
2022-12-25T09:44:16.372Z,34.52
2022-12-25T09:47:02.519Z,36.02
2022-12-25T09:50:04.236Z,37.79
2022-12-25T09:52:56.365Z,35.96
2022-12-25T09:55:27.002Z,36.69
2022-12-25T09:57:58.809Z,37.42
2022-12-25T10:00:35.143Z,35.58
2022-12-25T10:03:58.062Z,35.43
2022-12-25T10:06:44.647Z,35.01
2022-12-25T10:09:39.960Z,33.18
2022-12-25T10:12:34.741Z,33.64
2022-12-25T10:15:39.129Z,33.79
2022-12-25T10:18:17.984Z,31.79
2022-12-25T10:20:54.892Z,31.26
2022-12-25T10:23:37.112Z,28.48
2022-12-25T10:26:16.516Z,30.85
2022-12-25T10:28:51.204Z,32.47
2022-12-25T10:31:26.985Z,32.60
2022-12-25T10:33:55.131Z,34.33
2022-12-25T10:36:29.230Z,35.64
2022-12-25T10:38:57.335Z,34.35
2022-12-25T10:42:08.629Z,35.10
2022-12-25T10:44:36.689Z,35.18
2022-12-25T10:47:05.248Z,35.65
2022-12-25T10:49:39.137Z,34.25
2022-12-25T10:52:29.031Z,34.29
2022-12-25T10:54:57.134Z,32.05
2022-12-25T10:57:26.599Z,32.97
2022-12-25T10:59:56.845Z,33.59
2022-12-25T11:02:39.221Z,34.45
2022-12-25T11:05:20.975Z,36.04
2022-12-25T11:07:54.366Z,39.70
2022-12-25T11:10:32.885Z,38.28
2022-12-25T11:13:02.572Z,38.46
2022-12-25T11:15:44.826Z,37.66
2022-12-25T11:18:22.637Z,40.55
2022-12-25T11:20:58.014Z,37.98
2022-12-25T11:23:29.491Z,38.69
2022-12-25T11:26:05.316Z,37.62
2022-12-25T11:28:37.020Z,36.46
2022-12-25T11:31:19.202Z,37.59
2022-12-25T11:34:55.509Z,36.58
2022-12-25T11:37:35.576Z,37.78
2022-12-25T11:40:05.240Z,41.32
2022-12-25T11:42:41.121Z,41.25
2022-12-25T11:45:45.335Z,43.17
2022-12-25T11:48:33.628Z,43.93
2022-12-25T11:51:05.122Z,44.23
2022-12-25T11:53:48.194Z,44.21
2022-12-25T11:56:21.667Z,46.98
2022-12-25T11:58:58.317Z,46.04
2022-12-25T12:01:34.208Z,49.64
2022-12-25T12:04:07.010Z,51.25
2022-12-25T12:07:18.986Z,53.84
2022-12-25T12:09:58.407Z,54.82
2022-12-25T12:13:00.964Z,55.99
2022-12-25T12:15:44.736Z,56.77
2022-12-25T12:18:24.084Z,57.51
2022-12-25T12:21:17.469Z,57.82
2022-12-25T12:24:12.037Z,59.03
2022-12-25T12:26:43.609Z,58.66
2022-12-25T12:29:31.383Z,59.56
2022-12-25T12:32:04.899Z,59.26
2022-12-25T12:34:43.956Z,59.10
2022-12-25T12:37:35.566Z,59.57
2022-12-25T12:40:05.797Z,60.07
2022-12-25T12:42:45.117Z,60.33
2022-12-25T12:45:33.764Z,61.15
2022-12-25T12:48:01.831Z,61.25
2022-12-25T12:50:36.109Z,61.38
2022-12-25T12:53:21.849Z,61.20
2022-12-25T12:55:50.512Z,61.36
2022-12-25T12:58:33.735Z,62.26
2022-12-25T13:01:27.054Z,63.07
2022-12-25T13:04:26.211Z,62.88
2022-12-25T13:07:10.213Z,63.22
2022-12-25T13:10:11.564Z,64.15
2022-12-25T13:12:39.157Z,64.70
2022-12-25T13:15:14.134Z,65.04
2022-12-25T13:17:46.872Z,65.67
2022-12-25T13:20:34.542Z,66.66
2022-12-25T13:23:12.438Z,67.02
2022-12-25T13:25:39.948Z,67.77
2022-12-25T13:28:14.781Z,67.48
2022-12-25T13:30:42.768Z,67.64
2022-12-25T13:33:19.651Z,67.45
2022-12-25T13:35:47.626Z,67.05
2022-12-25T13:38:18.176Z,66.25
2022-12-25T13:41:13.722Z,66.65
2022-12-25T13:43:44.167Z,66.38
2022-12-25T13:46:15.284Z,65.61
2022-12-25T13:48:42.913Z,65.11
2022-12-25T13:51:16.806Z,65.15
2022-12-25T13:53:44.248Z,65.22
2022-12-25T13:56:16.287Z,65.57
2022-12-25T13:58:47.782Z,65.75
2022-12-25T14:01:16.603Z,65.38
2022-12-25T14:03:47.506Z,65.21
2022-12-25T14:06:17.757Z,65.59
2022-12-25T14:08:46.298Z,65.48
2022-12-25T14:11:20.885Z,65.97
2022-12-25T14:13:54.186Z,65.52
2022-12-25T14:16:22.513Z,65.76
2022-12-25T14:18:59.835Z,66.04
2022-12-25T14:21:34.623Z,66.00
2022-12-25T14:24:02.424Z,66.19
2022-12-25T14:26:33.383Z,66.52
2022-12-25T14:29:16.564Z,66.58
2022-12-25T14:31:47.015Z,66.94
2022-12-25T14:34:22.724Z,66.84
2022-12-25T14:36:52.577Z,67.32
2022-12-25T14:39:36.501Z,67.44
2022-12-25T14:42:22.202Z,67.45
2022-12-25T14:44:59.097Z,67.84
2022-12-25T14:47:27.534Z,68.25
2022-12-25T14:49:54.875Z,68.42
2022-12-25T14:52:39.831Z,68.86
2022-12-25T14:55:19.711Z,69.02
2022-12-25T14:58:06.183Z,69.64
2022-12-25T15:00:38.006Z,69.96
2022-12-25T15:03:26.564Z,69.85
2022-12-25T15:06:05.987Z,70.55
2022-12-25T15:08:35.360Z,70.85
2022-12-25T15:11:03.588Z,71.28
2022-12-25T15:13:32.481Z,72.02
2022-12-25T15:16:08.948Z,72.43
2022-12-25T15:18:43.697Z,73.04
2022-12-25T15:21:21.491Z,73.55
2022-12-25T15:23:48.927Z,73.81
2022-12-25T15:26:16.683Z,74.68
2022-12-25T15:28:44.135Z,74.62
2022-12-25T15:31:29.061Z,75.61
2022-12-25T15:34:00.362Z,76.12
2022-12-25T15:36:28.245Z,76.71
2022-12-25T15:38:56.456Z,77.24
2022-12-25T15:41:50.677Z,77.23
2022-12-25T15:44:18.648Z,78.49
2022-12-25T15:46:46.592Z,78.49
2022-12-25T15:49:15.729Z,78.29
2022-12-25T15:51:44.880Z,79.01
2022-12-25T15:54:12.847Z,79.83
2022-12-25T15:56:44.394Z,80.08
2022-12-25T15:59:14.535Z,81.04
2022-12-25T16:01:48.155Z,81.03
2022-12-25T16:04:15.737Z,81.23
2022-12-25T16:06:43.265Z,81.95
2022-12-25T16:09:15.184Z,82.30
2022-12-25T16:11:43.728Z,82.35
2022-12-25T16:14:11.782Z,82.22
2022-12-25T16:16:39.774Z,82.42
2022-12-25T16:19:07.554Z,82.15
2022-12-25T16:21:52.959Z,83.06
2022-12-25T16:24:20.307Z,83.17
2022-12-25T16:26:47.712Z,82.80
2022-12-25T16:29:15.271Z,82.97
2022-12-25T16:31:42.869Z,82.84
2022-12-25T16:34:10.602Z,82.63
2022-12-25T16:36:38.120Z,82.11
2022-12-25T16:39:05.984Z,81.73
2022-12-25T16:41:34.359Z,81.91
2022-12-25T16:44:10.161Z,82.80
2022-12-25T16:46:40.428Z,82.73
2022-12-25T16:49:08.728Z,83.08
2022-12-25T16:51:36.186Z,84.50
2022-12-25T16:54:03.834Z,84.52
2022-12-25T16:56:32.388Z,84.38
2022-12-25T16:59:01.232Z,84.46
2022-12-25T17:01:29.080Z,84.04
2022-12-25T17:04:01.575Z,84.17
2022-12-25T17:06:29.573Z,84.51
2022-12-25T17:08:59.982Z,84.73
2022-12-25T17:11:29.933Z,84.71
2022-12-25T17:14:02.078Z,84.77
2022-12-25T17:16:33.405Z,84.84
2022-12-25T17:19:07.905Z,85.06
2022-12-25T17:21:38.325Z,85.39
2022-12-25T17:24:06.694Z,85.44
2022-12-25T17:26:34.225Z,85.60
2022-12-25T17:29:02.138Z,86.10
2022-12-25T17:31:30.176Z,86.17
2022-12-25T17:33:57.756Z,85.98
2022-12-25T17:36:25.157Z,85.61
2022-12-25T17:38:52.936Z,85.62
2022-12-25T17:41:21.351Z,85.93
2022-12-25T17:43:48.754Z,86.25
2022-12-25T17:46:20.107Z,86.29
2022-12-25T17:48:50.048Z,86.20
2022-12-25T17:51:22.048Z,86.16
2022-12-25T17:53:53.362Z,86.16
2022-12-25T17:56:22.820Z,86.38
2022-12-25T17:58:56.665Z,86.53
2022-12-25T18:01:26.472Z,86.80
2022-12-25T18:03:55.309Z,87.01
2022-12-25T18:06:25.799Z,87.07
2022-12-25T18:08:56.392Z,87.00
2022-12-25T18:11:29.261Z,87.20
2022-12-25T18:13:58.252Z,87.03
2022-12-25T18:16:27.257Z,87.05
2022-12-25T18:18:54.849Z,87.22
2022-12-25T18:21:23.243Z,87.32
2022-12-25T18:23:50.703Z,87.58
2022-12-25T18:26:20.446Z,87.82
2022-12-25T18:28:49.604Z,87.91
2022-12-25T18:31:23.685Z,88.02
2022-12-25T18:33:52.155Z,88.17
2022-12-25T18:36:25.928Z,88.11
2022-12-25T18:38:55.109Z,88.15
2022-12-25T18:41:23.373Z,88.28
2022-12-25T18:43:53.920Z,88.17
2022-12-25T18:46:27.667Z,88.30
2022-12-25T18:48:56.576Z,88.22
2022-12-25T18:51:24.718Z,88.15
2022-12-25T18:53:52.179Z,87.93
2022-12-25T18:56:20.684Z,87.66
2022-12-25T18:58:48.089Z,87.20
2022-12-25T19:01:21.984Z,86.80
2022-12-25T19:03:51.711Z,86.47
2022-12-25T19:06:27.984Z,86.08
2022-12-25T19:08:56.318Z,85.49
2022-12-25T19:11:23.781Z,85.18
2022-12-25T19:13:51.220Z,85.01
2022-12-25T19:16:18.810Z,84.88
2022-12-25T19:18:46.509Z,84.89
2022-12-25T19:21:14.034Z,84.96
2022-12-25T19:23:41.470Z,85.10
2022-12-25T19:26:11.274Z,84.75
2022-12-25T19:28:40.167Z,84.39
2022-12-25T19:31:09.944Z,84.68
2022-12-25T19:33:41.765Z,84.97
2022-12-25T19:36:13.060Z,85.08
2022-12-25T19:38:41.623Z,85.13
2022-12-25T19:41:15.428Z,84.85
2022-12-25T19:43:47.523Z,84.56
2022-12-25T19:46:19.689Z,84.19
2022-12-25T19:48:47.782Z,83.99
2022-12-25T19:51:19.493Z,83.54
2022-12-25T19:53:47.274Z,83.46
2022-12-25T19:56:15.414Z,83.49
2022-12-25T19:58:43.377Z,83.63
2022-12-25T20:01:18.509Z,83.53
2022-12-25T20:03:48.600Z,83.45
2022-12-25T20:06:22.046Z,83.31
2022-12-25T20:08:53.811Z,83.55
2022-12-25T20:11:24.053Z,83.40
2022-12-25T20:13:51.858Z,83.28
2022-12-25T20:16:19.372Z,83.01
2022-12-25T20:18:46.918Z,82.56
2022-12-25T20:21:21.354Z,82.25
2022-12-25T20:23:52.059Z,81.93
2022-12-25T20:26:24.280Z,82.13
2022-12-25T20:28:52.482Z,82.24
2022-12-25T20:31:27.254Z,82.79
2022-12-25T20:34:03.449Z,83.41
2022-12-25T20:36:36.377Z,83.80
2022-12-25T20:39:09.884Z,84.48
2022-12-25T20:41:38.985Z,84.82
2022-12-25T20:44:09.926Z,85.22
2022-12-25T20:46:37.478Z,84.95
2022-12-25T20:49:05.436Z,85.00
2022-12-25T20:51:33.122Z,84.88
2022-12-25T20:54:01.220Z,84.87
2022-12-25T20:56:29.984Z,84.93
2022-12-25T20:59:00.117Z,85.27
2022-12-25T21:01:30.451Z,85.40
2022-12-25T21:03:58.630Z,85.88
2022-12-25T21:06:26.259Z,85.94
2022-12-25T21:08:53.745Z,85.94
2022-12-25T21:11:22.009Z,86.00
2022-12-25T21:13:49.848Z,85.54
2022-12-25T21:16:22.233Z,85.15
2022-12-25T21:18:53.145Z,84.76
2022-12-25T21:21:22.095Z,84.54
2022-12-25T21:23:49.858Z,84.54
2022-12-25T21:26:20.286Z,84.54
2022-12-25T21:28:49.551Z,85.99
2022-12-25T21:31:18.784Z,86.49
2022-12-25T21:33:52.401Z,87.03
2022-12-25T21:36:27.311Z,86.90
2022-12-25T21:39:02.161Z,87.18
2022-12-25T21:41:31.545Z,87.80
2022-12-25T21:43:59.624Z,87.71
2022-12-25T21:46:28.373Z,87.44
2022-12-25T21:48:56.663Z,87.96
2022-12-25T21:51:49.607Z,88.28
2022-12-25T21:54:19.575Z,88.31
2022-12-25T21:56:48.208Z,88.27
2022-12-25T21:59:19.300Z,88.52
2022-12-25T22:01:48.274Z,88.37
2022-12-25T22:04:18.417Z,88.37
2022-12-25T22:07:04.827Z,88.23
2022-12-25T22:09:32.851Z,87.92
2022-12-25T22:12:18.828Z,87.66
2022-12-25T22:14:55.433Z,87.55
2022-12-25T22:18:05.596Z,88.21
2022-12-25T22:20:38.502Z,88.37
2022-12-25T22:23:06.033Z,88.08
2022-12-25T22:25:33.439Z,88.08
2022-12-25T22:28:00.824Z,88.16
2022-12-25T22:30:29.739Z,87.86
2022-12-25T22:32:57.462Z,87.51
2022-12-25T22:35:24.951Z,87.13
2022-12-25T22:37:53.979Z,86.70
2022-12-25T22:40:21.894Z,86.28
2022-12-25T22:42:49.553Z,85.89
2022-12-25T22:45:17.127Z,85.60
2022-12-25T22:47:44.572Z,85.47
2022-12-25T22:50:15.068Z,85.28
2022-12-25T22:52:45.686Z,85.00
2022-12-25T22:55:18.267Z,84.87
2022-12-25T22:57:45.747Z,84.48
2022-12-25T23:00:13.925Z,84.20
2022-12-25T23:02:41.477Z,84.14
2022-12-25T23:05:09.333Z,84.19
2022-12-25T23:07:36.806Z,84.30
2022-12-25T23:10:06.361Z,84.34
2022-12-25T23:12:52.068Z,84.51
2022-12-25T23:15:19.512Z,84.81
2022-12-25T23:18:05.162Z,85.01
2022-12-25T23:20:51.846Z,85.31
2022-12-25T23:23:37.868Z,85.52
2022-12-25T23:26:08.200Z,85.15
2022-12-25T23:29:00.265Z,84.96
2022-12-25T23:31:39.711Z,84.86
2022-12-25T23:34:08.643Z,84.86
2022-12-25T23:36:36.623Z,84.76
2022-12-25T23:39:09.554Z,84.75
2022-12-25T23:41:42.681Z,84.86
2022-12-25T23:44:12.805Z,85.00
2022-12-25T23:46:41.770Z,85.10
2022-12-25T23:49:22.392Z,85.14
2022-12-25T23:51:50.049Z,85.16
2022-12-25T23:54:22.235Z,85.30
2022-12-25T23:56:50.703Z,85.16
2022-12-25T23:59:18.877Z,85.02
